Keewaydin — ZCFL7 — position and weather

sailwx.info

Track history (hours):
 
Tides and Currents Weather Stations Pressure Air Temp Water Temp Dewpoint Dewpoint Depression Visibility Wind Speed Wind Dir Waves Ship Positions

Keewaydin

Last reported at 2016-Jul-28 12:09 UTC. Time now 2016-Jul-30 20:42 UTC.
Position N 36°09' W 005°14'.

Length 34 m; draft 2.7 m.

MMSI: 319536000.

Date/timePositionNaut miles runAvg speedWind from/ knotsBaromVisibWave heightAir tempDewpointWater temp
2016-Jul-28 12:09N 36°09' W 005°14'5 8.3
2016-Jul-28 11:33N 36°06' W 005°19'3 0.2
2016-Jul-27 18:34N 36°08' W 005°21'1 0.2
2016-Jul-27 14:33N 36°08' W 005°22'9 8.5
2016-Jul-27 13:32N 36°02' W 005°29'10 8.7
2016-Jul-27 12:21N 36°00' W 005°42'44 7.0
2016-Jul-27 06:07N 36°35' W 006°15'78 1.8
2016-Jul-25 10:30N 36°53' W 007°50'8 8.1
2016-Jul-25 09:32N 36°55' W 007°59'8 7.9
2016-Jul-25 08:33N 36°58' W 008°08'8 8.2
2016-Jul-25 07:33N 37°01' W 008°18'9 8.6
2016-Jul-25 06:33N 37°05' W 008°28'4 3.3
2016-Jul-25 05:29N 37°07' W 008°32'0 0.0
2016-Jul-25 04:32N 37°07' W 008°32'0 0.0
2016-Jul-25 03:32N 37°07' W 008°32'0 0.0
2016-Jul-25 02:32N 37°07' W 008°32'0 0.0
2016-Jul-25 01:32N 37°07' W 008°32'0 0.0
2016-Jul-25 00:32N 37°07' W 008°32'0 0.0
2016-Jul-24 23:32N 37°07' W 008°31'0 0.0
2016-Jul-24 22:23N 37°07' W 008°32'0 0.0
2016-Jul-24 21:23N 37°07' W 008°31'0 0.0
2016-Jul-24 20:33N 37°07' W 008°32'7 7.2
2016-Jul-24 19:33N 37°04' W 008°40'9 9.2
2016-Jul-24 18:33N 37°00' W 008°51'15 7.1
2016-Jul-24 16:28N 37°11' W 009°03'8 9.0
2016-Jul-24 15:32N 37°19' W 009°05'9 8.6
2016-Jul-24 14:32N 37°28' W 009°07'8 8.5
2016-Jul-24 13:33N 37°36' W 009°09'9 8.9
2016-Jul-24 12:33N 37°45' W 009°11'10 9.6
2016-Jul-24 11:33N 37°54' W 009°13'9 9.4
2016-Jul-24 10:33N 38°03' W 009°15'9 9.2
2016-Jul-24 09:33N 38°12' W 009°17'9 9.0
2016-Jul-24 08:33N 38°21' W 009°19'9 8.6
2016-Jul-24 07:33N 38°30' W 009°21'8 8.5
2016-Jul-24 06:33N 38°38' W 009°23'3 0.1
2016-Jul-22 05:34N 38°41' W 009°25'7 7.2
2016-Jul-22 04:34N 38°47' W 009°31'9 8.7
2016-Jul-22 03:33N 38°55' W 009°30'8 8.4
2016-Jul-22 02:33N 39°04' W 009°29'9 8.7
2016-Jul-22 01:30N 39°13' W 009°28'9 9.4
2016-Jul-22 00:31N 39°22' W 009°27'10 9.8
2016-Jul-21 23:32N 39°31' W 009°21'9 9.3
2016-Jul-21 22:31N 39°39' W 009°16'9 9.1
2016-Jul-21 21:30N 39°48' W 009°11'  
Track history (hours):
 
Tides and Currents Weather Stations Pressure Air Temp Water Temp Dewpoint Dewpoint Depression Visibility Wind Speed Wind Dir Waves Ship Positions

Keewaydin

Last reported at 2016-Jul-28 12:09 UTC. Time now 2016-Jul-30 20:42 UTC.
Position N 36°09' W 005°14'.

Length 34 m; draft 2.7 m.

MMSI: 319536000.

Date/timePositionNaut miles runAvg speedWind from/ knotsBaromVisibWave heightAir tempDewpointWater temp
2016-Jul-28 12:09N 36°09' W 005°14'5 8.3
2016-Jul-28 11:33N 36°06' W 005°19'3 0.2
2016-Jul-27 18:34N 36°08' W 005°21'1 0.2
2016-Jul-27 14:33N 36°08' W 005°22'9 8.5
2016-Jul-27 13:32N 36°02' W 005°29'10 8.7
2016-Jul-27 12:21N 36°00' W 005°42'44 7.0
2016-Jul-27 06:07N 36°35' W 006°15'78 1.8
2016-Jul-25 10:30N 36°53' W 007°50'8 8.1
2016-Jul-25 09:32N 36°55' W 007°59'8 7.9
2016-Jul-25 08:33N 36°58' W 008°08'8 8.2
2016-Jul-25 07:33N 37°01' W 008°18'9 8.6
2016-Jul-25 06:33N 37°05' W 008°28'4 3.3
2016-Jul-25 05:29N 37°07' W 008°32'0 0.0
2016-Jul-25 04:32N 37°07' W 008°32'0 0.0
2016-Jul-25 03:32N 37°07' W 008°32'0 0.0
2016-Jul-25 02:32N 37°07' W 008°32'0 0.0
2016-Jul-25 01:32N 37°07' W 008°32'0 0.0
2016-Jul-25 00:32N 37°07' W 008°32'0 0.0
2016-Jul-24 23:32N 37°07' W 008°31'0 0.0
2016-Jul-24 22:23N 37°07' W 008°32'0 0.0
2016-Jul-24 21:23N 37°07' W 008°31'0 0.0
2016-Jul-24 20:33N 37°07' W 008°32'7 7.2
2016-Jul-24 19:33N 37°04' W 008°40'9 9.2
2016-Jul-24 18:33N 37°00' W 008°51'15 7.1
2016-Jul-24 16:28N 37°11' W 009°03'8 9.0
2016-Jul-24 15:32N 37°19' W 009°05'9 8.6
2016-Jul-24 14:32N 37°28' W 009°07'8 8.5
2016-Jul-24 13:33N 37°36' W 009°09'9 8.9
2016-Jul-24 12:33N 37°45' W 009°11'10 9.6
2016-Jul-24 11:33N 37°54' W 009°13'9 9.4
2016-Jul-24 10:33N 38°03' W 009°15'9 9.2
2016-Jul-24 09:33N 38°12' W 009°17'9 9.0
2016-Jul-24 08:33N 38°21' W 009°19'9 8.6
2016-Jul-24 07:33N 38°30' W 009°21'8 8.5
2016-Jul-24 06:33N 38°38' W 009°23'3 0.1
2016-Jul-22 05:34N 38°41' W 009°25'7 7.2
2016-Jul-22 04:34N 38°47' W 009°31'9 8.7
2016-Jul-22 03:33N 38°55' W 009°30'8 8.4
2016-Jul-22 02:33N 39°04' W 009°29'9 8.7
2016-Jul-22 01:30N 39°13' W 009°28'9 9.4
2016-Jul-22 00:31N 39°22' W 009°27'10 9.8
2016-Jul-21 23:32N 39°31' W 009°21'9 9.3
2016-Jul-21 22:31N 39°39' W 009°16'9 9.1
2016-Jul-21 21:30N 39°48' W 009°11'  

Dump ship's entire track history